Time;durP1;ratioP1;P1;durP2;ratioP2;P2;SDS_P1;SDS_P2;PMS_P1;PMS_P2;Temp;Humidity;BMP_temperature;BMP_pressure;BME280_temperature;BME280_humidity;BME280_pressure;Samples;Min_cycle;Max_cycle;Signal;HPM_P1;HPM_P2
2021/10/17 00:00:25;;;;;;;9.47;4.03;;;9.40;78.10;;;;;;5017661;28;20262;-90
2021/10/17 00:02:51;;;;;;;7.33;3.50;;;9.40;78.30;;;;;;5035256;28;20188;-90
2021/10/17 00:05:19;;;;;;;13.60;3.67;;;9.40;78.20;;;;;;5018458;28;20179;-90
2021/10/17 00:07:46;;;;;;;9.37;3.57;;;9.40;78.40;;;;;;5017592;28;20204;-90
2021/10/17 00:10:18;;;;;;;11.93;3.53;;;9.40;78.80;;;;;;5035430;28;20191;-90
2021/10/17 00:12:44;;;;;;;13.90;3.57;;;9.40;77.90;;;;;;5017282;28;20227;-90
2021/10/17 00:15:14;;;;;;;10.17;3.50;;;9.40;77.60;;;;;;5017699;28;20636;-90
2021/10/17 00:17:41;;;;;;;12.60;3.90;;;9.40;78.10;;;;;;5017308;28;20180;-90
2021/10/17 00:20:09;;;;;;;10.77;3.67;;;9.40;77.80;;;;;;5017695;28;20196;-90
2021/10/17 00:22:35;;;;;;;9.67;4.23;;;9.40;78.20;;;;;;5035153;28;20220;-90
2021/10/17 00:25:01;;;;;;;6.80;3.00;;;9.40;77.90;;;;;;5017504;28;20597;-91
2021/10/17 00:27:27;;;;;;;11.00;3.47;;;9.40;77.30;;;;;;5017243;28;20180;-90
2021/10/17 00:29:52;;;;;;;11.80;3.93;;;9.50;77.20;;;;;;5034901;28;20177;-91
2021/10/17 00:32:18;;;;;;;10.30;3.67;;;9.30;78.00;;;;;;5034677;28;20226;-91
2021/10/17 00:34:44;;;;;;;13.20;3.53;;;9.40;77.00;;;;;;5034758;28;20177;-90
2021/10/17 00:37:10;;;;;;;9.13;3.77;;;9.40;77.70;;;;;;5017146;28;20242;-91
2021/10/17 00:39:36;;;;;;;11.00;4.03;;;9.40;77.20;;;;;;5034517;28;20595;-91
2021/10/17 00:42:07;;;;;;;10.47;3.27;;;9.30;78.10;;;;;;5034627;28;20251;-91
2021/10/17 00:44:32;;;;;;;11.27;3.57;;;9.30;77.30;;;;;;5016827;28;20195;-90
2021/10/17 00:46:58;;;;;;;11.50;3.87;;;9.30;77.90;;;;;;5017859;28;20238;-90
2021/10/17 00:49:25;;;;;;;13.40;4.33;;;9.20;77.90;;;;;;5017007;28;20180;-90
2021/10/17 00:51:51;;;;;;;10.80;3.33;;;9.20;77.80;;;;;;5034771;28;20205;-90
2021/10/17 00:54:17;;;;;;;10.93;3.40;;;9.20;77.60;;;;;;5016561;28;20202;-90
2021/10/17 00:56:45;;;;;;;12.20;3.93;;;9.20;77.70;;;;;;5016818;28;20180;-90
2021/10/17 00:59:12;;;;;;;12.43;4.53;;;9.10;78.10;;;;;;5017709;28;20724;-90
2021/10/17 01:01:38;;;;;;;9.17;3.70;;;9.10;78.20;;;;;;5034316;28;20641;-90
2021/10/17 01:04:04;;;;;;;9.93;4.03;;;9.10;78.30;;;;;;5016463;28;20188;-90
2021/10/17 01:06:31;;;;;;;13.33;4.20;;;9.00;78.20;;;;;;5016529;28;20180;-90
2021/10/17 01:08:57;;;;;;;11.67;4.03;;;9.10;78.50;;;;;;5016491;28;20173;-90
2021/10/17 01:11:23;;;;;;;11.20;4.00;;;9.20;78.20;;;;;;5034090;28;20176;-90
2021/10/17 01:13:49;;;;;;;8.93;3.33;;;9.10;78.80;;;;;;5016165;28;20224;-90
2021/10/17 01:16:15;;;;;;;11.93;3.30;;;9.10;78.80;;;;;;5016630;28;20267;-91
2021/10/17 01:18:40;;;;;;;11.07;3.93;;;9.10;79.20;;;;;;5034410;28;20346;-90
2021/10/17 01:21:06;;;;;;;13.23;4.33;;;9.10;79.10;;;;;;5033956;28;20218;-90
2021/10/17 01:23:32;;;;;;;14.80;5.27;;;9.10;79.30;;;;;;5016116;28;20692;-90
2021/10/17 01:25:57;;;;;;;11.10;3.60;;;9.20;79.50;;;;;;5033965;28;20548;-90
2021/10/17 01:28:23;;;;;;;9.30;5.17;;;9.20;79.10;;;;;;5016234;28;20180;-90
2021/10/17 01:30:49;;;;;;;15.43;4.53;;;9.20;79.60;;;;;;5033278;28;20179;-90
2021/10/17 01:33:15;;;;;;;19.23;4.77;;;9.10;79.60;;;;;;5016019;28;20295;-90
2021/10/17 01:35:41;;;;;;;8.17;3.93;;;9.10;80.40;;;;;;5016002;28;20177;-90
2021/10/17 01:38:07;;;;;;;17.33;5.10;;;9.10;80.60;;;;;;5015848;28;20188;-90
2021/10/17 01:40:35;;;;;;;19.33;5.10;;;9.10;80.60;;;;;;5015833;28;20745;-90
2021/10/17 01:43:00;;;;;;;9.80;4.40;;;9.10;80.60;;;;;;5033502;28;20275;-90
2021/10/17 01:45:26;;;;;;;8.83;4.37;;;9.00;81.10;;;;;;5016138;28;20219;-90
2021/10/17 01:47:53;;;;;;;15.40;4.50;;;9.10;81.10;;;;;;5015835;28;20180;-90
2021/10/17 01:50:20;;;;;;;12.73;4.87;;;9.10;81.40;;;;;;5033443;28;20173;-90
2021/10/17 01:52:46;;;;;;;14.47;4.53;;;9.10;81.30;;;;;;5033335;28;20200;-90
2021/10/17 01:55:12;;;;;;;13.60;4.47;;;9.10;81.40;;;;;;5033418;28;20177;-90
2021/10/17 01:57:38;;;;;;;11.33;4.60;;;9.10;81.30;;;;;;5016534;28;20672;-90
2021/10/17 02:00:06;;;;;;;8.37;4.37;;;9.20;81.20;;;;;;5015725;28;20196;-90
2021/10/17 02:02:32;;;;;;;10.17;4.90;;;9.20;81.60;;;;;;5033143;28;20195;-90
2021/10/17 02:04:57;;;;;;;14.57;5.00;;;9.20;81.40;;;;;;5033509;28;20177;-90
2021/10/17 02:07:23;;;;;;;13.13;4.90;;;9.20;81.60;;;;;;5033278;28;20637;-90
2021/10/17 02:09:49;;;;;;;18.70;5.30;;;9.30;81.30;;;;;;5015537;28;20278;-90
2021/10/17 02:12:17;;;;;;;19.10;6.03;;;9.30;81.20;;;;;;5015426;28;20311;-90
2021/10/17 02:14:43;;;;;;;13.60;5.73;;;9.40;81.30;;;;;;5015580;28;20172;-91
2021/10/17 02:17:09;;;;;;;14.70;4.77;;;9.40;82.00;;;;;;5015537;28;20184;-90
2021/10/17 02:19:34;;;;;;;15.13;4.97;;;9.30;81.50;;;;;;5015452;28;20199;-90
2021/10/17 02:22:00;;;;;;;12.60;4.93;;;9.30;81.10;;;;;;5016563;28;20176;-90
2021/10/17 02:24:25;;;;;;;11.87;4.73;;;9.30;81.20;;;;;;5015732;28;20571;-90
2021/10/17 02:26:51;;;;;;;11.20;5.13;;;9.30;81.30;;;;;;5033379;28;20173;-90
2021/10/17 02:29:17;;;;;;;12.93;5.43;;;9.30;81.90;;;;;;5033078;28;20173;-90
2021/10/17 02:31:42;;;;;;;11.10;5.13;;;9.30;81.90;;;;;;5015916;28;20180;-90
2021/10/17 02:34:08;;;;;;;10.23;4.53;;;9.30;82.30;;;;;;5015771;28;20684;-90
2021/10/17 02:36:34;;;;;;;15.63;5.17;;;9.30;82.70;;;;;;5015445;28;20660;-90
2021/10/17 02:38:59;;;;;;;14.37;5.23;;;9.30;83.00;;;;;;5015341;28;20227;-90
2021/10/17 02:41:25;;;;;;;12.73;5.23;;;9.30;82.90;;;;;;5015475;28;20645;-90
2021/10/17 02:43:51;;;;;;;13.13;5.07;;;9.30;82.60;;;;;;5034362;28;20200;-90
2021/10/17 02:46:17;;;;;;;17.47;5.77;;;9.30;82.70;;;;;;5036793;28;20179;-90
2021/10/17 02:48:42;;;;;;;15.63;5.13;;;9.30;82.80;;;;;;5036720;28;20185;-90
2021/10/17 02:51:08;;;;;;;13.00;5.37;;;9.30;82.90;;;;;;5037236;28;20173;-90
2021/10/17 02:53:34;;;;;;;16.23;5.53;;;9.40;82.60;;;;;;5018870;28;20634;-90
2021/10/17 02:56:00;;;;;;;12.57;5.67;;;9.30;82.80;;;;;;5018857;28;20271;-90
2021/10/17 02:58:26;;;;;;;21.23;5.97;;;9.40;83.10;;;;;;5018727;28;20219;-90
2021/10/17 03:00:52;;;;;;;17.60;6.13;;;9.40;83.20;;;;;;5036521;28;20173;-90
2021/10/17 03:03:17;;;;;;;14.63;5.53;;;9.30;83.30;;;;;;5018638;28;20695;-90
2021/10/17 03:05:43;;;;;;;21.07;5.87;;;9.40;83.10;;;;;;5036447;28;20218;-90
2021/10/17 03:08:09;;;;;;;18.73;5.50;;;9.40;83.10;;;;;;5018672;28;20169;-90
2021/10/17 03:10:34;;;;;;;15.57;6.27;;;9.40;83.10;;;;;;5018618;28;20208;-90
2021/10/17 03:13:00;;;;;;;20.33;5.97;;;9.40;83.20;;;;;;5036633;28;20220;-90
2021/10/17 03:15:26;;;;;;;14.83;5.97;;;9.40;83.20;;;;;;5036286;28;20263;-90
2021/10/17 03:17:53;;;;;;;16.20;6.43;;;9.40;83.20;;;;;;5018516;28;20559;-90
2021/10/17 03:20:19;;;;;;;17.93;6.30;;;9.40;83.40;;;;;;5018366;28;20226;-90
2021/10/17 03:22:45;;;;;;;15.37;6.13;;;9.40;83.40;;;;;;5036024;28;20203;-90
2021/10/17 03:25:10;;;;;;;23.40;5.73;;;9.50;83.40;;;;;;5019162;28;20177;-90
2021/10/17 03:27:36;;;;;;;16.87;6.37;;;9.50;83.50;;;;;;5036001;28;20255;-90
2021/10/17 03:30:03;;;;;;;15.13;5.80;;;9.40;83.50;;;;;;5035981;28;20634;-90
2021/10/17 03:32:29;;;;;;;15.13;6.13;;;9.50;83.40;;;;;;5018320;28;20185;-90
2021/10/17 03:34:54;;;;;;;19.27;6.43;;;9.50;83.70;;;;;;5018547;28;20235;-90
2021/10/17 03:37:20;;;;;;;14.47;5.73;;;9.50;83.50;;;;;;5019065;28;20188;-90
2021/10/17 03:39:46;;;;;;;13.27;6.20;;;9.40;83.50;;;;;;5035839;28;20200;-90
2021/10/17 03:42:11;;;;;;;13.93;5.80;;;9.40;83.90;;;;;;5017933;28;20180;-90
2021/10/17 03:44:37;;;;;;;16.70;6.20;;;9.40;83.70;;;;;;5035698;28;20172;-90
2021/10/17 03:47:03;;;;;;;14.37;6.57;;;9.40;83.90;;;;;;5018223;28;20187;-90
2021/10/17 03:49:29;;;;;;;14.77;6.27;;;9.40;84.10;;;;;;5018186;28;20280;-90
2021/10/17 03:51:55;;;;;;;15.73;6.03;;;9.40;84.10;;;;;;5018205;28;20194;-90
2021/10/17 03:54:21;;;;;;;17.37;6.67;;;9.40;84.10;;;;;;5034920;28;20319;-90
2021/10/17 03:56:46;;;;;;;14.53;6.47;;;9.40;84.00;;;;;;5017852;28;20181;-90
2021/10/17 03:59:15;;;;;;;16.93;6.03;;;9.40;84.00;;;;;;5017755;28;20259;-90
2021/10/17 04:01:41;;;;;;;12.87;6.60;;;9.40;84.10;;;;;;5018029;28;20169;-90
2021/10/17 04:04:06;;;;;;;12.90;6.63;;;9.40;84.10;;;;;;5017696;28;20195;-90
2021/10/17 04:06:32;;;;;;;15.40;6.47;;;9.50;84.20;;;;;;5017900;28;20181;-90
2021/10/17 04:08:58;;;;;;;17.77;6.80;;;9.50;84.30;;;;;;5018159;28;20177;-90
2021/10/17 04:11:23;;;;;;;16.83;6.83;;;9.50;84.20;;;;;;5017864;28;20180;-90
2021/10/17 04:13:49;;;;;;;29.20;7.63;;;9.50;84.30;;;;;;5035021;28;20593;-90
2021/10/17 04:16:14;;;;;;;11.10;6.27;;;9.50;84.40;;;;;;5035107;28;20184;-90
2021/10/17 04:18:40;;;;;;;12.77;6.43;;;9.50;84.20;;;;;;5017333;28;20208;-90
2021/10/17 04:21:06;;;;;;;14.83;6.93;;;9.50;84.30;;;;;;5017296;28;20264;-90
2021/10/17 04:23:32;;;;;;;19.90;7.17;;;9.50;84.30;;;;;;5017295;28;20617;-90
2021/10/17 04:25:57;;;;;;;19.30;7.33;;;9.60;84.30;;;;;;5034956;28;20169;-90
2021/10/17 04:28:23;;;;;;;19.73;6.90;;;9.60;84.30;;;;;;5018059;28;20230;-90
2021/10/17 04:30:49;;;;;;;14.23;7.27;;;9.60;84.60;;;;;;5017524;28;20177;-90
2021/10/17 04:33:14;;;;;;;15.73;7.57;;;9.60;84.30;;;;;;5017177;28;20711;-90
2021/10/17 04:35:40;;;;;;;15.63;7.03;;;9.60;84.30;;;;;;5017959;28;20532;-90
2021/10/17 04:38:07;;;;;;;19.13;8.03;;;9.70;84.50;;;;;;5017007;28;20177;-90
2021/10/17 04:40:33;;;;;;;21.47;7.87;;;9.70;84.20;;;;;;5017255;28;20235;-90
2021/10/17 04:43:00;;;;;;;18.07;6.77;;;9.70;84.00;;;;;;5034537;28;20268;-90
2021/10/17 04:45:25;;;;;;;18.97;7.67;;;9.70;84.10;;;;;;5034546;28;20549;-90
2021/10/17 04:47:51;;;;;;;13.67;7.20;;;9.60;84.10;;;;;;5016861;28;20234;-90
2021/10/17 04:50:17;;;;;;;15.13;7.60;;;9.60;84.40;;;;;;5016664;28;20181;-90
2021/10/17 04:52:42;;;;;;;18.30;8.50;;;9.60;84.80;;;;;;5034721;28;20200;-90
2021/10/17 04:55:08;;;;;;;19.40;8.33;;;9.60;84.80;;;;;;5034482;28;20534;-90
2021/10/17 04:57:35;;;;;;;20.23;7.50;;;9.50;85.10;;;;;;5016609;28;20189;-90
2021/10/17 05:00:05;;;;;;;19.20;7.97;;;9.50;85.20;;;;;;5034211;28;20255;-90
2021/10/17 05:02:32;;;;;;;20.20;7.93;;;9.60;85.00;;;;;;5016965;28;20224;-90
2021/10/17 05:04:58;;;;;;;14.07;6.83;;;9.60;84.90;;;;;;5034186;28;20186;-90
2021/10/17 05:07:24;;;;;;;18.13;7.13;;;9.60;84.60;;;;;;5033288;28;20173;-90
2021/10/17 05:09:49;;;;;;;16.80;7.00;;;9.60;84.70;;;;;;5016677;28;20183;-90
2021/10/17 05:12:15;;;;;;;16.67;7.60;;;9.60;84.50;;;;;;5033915;28;20208;-90
2021/10/17 05:14:41;;;;;;;18.87;7.83;;;9.60;84.30;;;;;;5016405;28;20188;-90
2021/10/17 05:17:07;;;;;;;14.67;6.80;;;9.60;84.40;;;;;;5016629;28;20651;-90
2021/10/17 05:19:32;;;;;;;19.33;7.43;;;9.60;84.60;;;;;;5034150;28;20200;-90
2021/10/17 05:21:58;;;;;;;16.93;7.83;;;9.60;84.70;;;;;;5016344;28;20183;-90
2021/10/17 05:24:23;;;;;;;17.27;7.10;;;9.50;84.80;;;;;;5016498;28;20203;-90
2021/10/17 05:26:49;;;;;;;21.33;7.20;;;9.60;84.80;;;;;;5033860;28;20226;-90
2021/10/17 05:29:15;;;;;;;15.27;7.77;;;9.60;84.60;;;;;;5033719;28;20212;-90
2021/10/17 05:31:40;;;;;;;17.50;7.83;;;9.60;84.60;;;;;;5016050;28;20188;-90
2021/10/17 05:34:06;;;;;;;15.97;7.93;;;9.60;84.50;;;;;;5033882;28;20207;-90
2021/10/17 05:36:32;;;;;;;21.07;8.10;;;9.60;84.90;;;;;;5016667;28;20180;-90
2021/10/17 05:38:58;;;;;;;23.20;7.97;;;9.60;84.60;;;;;;5016505;28;20575;-90
2021/10/17 05:41:25;;;;;;;14.10;7.20;;;9.60;84.70;;;;;;5033873;28;20169;-90
2021/10/17 05:43:51;;;;;;;18.07;7.67;;;9.60;84.70;;;;;;5033484;28;20194;-90
2021/10/17 05:46:17;;;;;;;20.13;9.27;;;9.60;84.80;;;;;;5016194;28;20271;-90
2021/10/17 05:48:42;;;;;;;16.47;8.23;;;9.60;85.00;;;;;;5015884;28;20182;-90
2021/10/17 05:51:08;;;;;;;21.60;9.00;;;9.60;85.20;;;;;;5015783;28;20229;-90
2021/10/17 05:53:34;;;;;;;19.10;7.93;;;9.60;85.40;;;;;;5033812;28;20200;-90
2021/10/17 05:56:00;;;;;;;18.20;8.63;;;9.60;85.50;;;;;;5016574;28;20177;-90
2021/10/17 05:58:25;;;;;;;14.27;7.23;;;9.60;85.40;;;;;;5016650;28;20183;-90
2021/10/17 06:00:51;;;;;;;15.83;7.40;;;9.50;85.50;;;;;;5015678;28;20251;-90
2021/10/17 06:03:17;;;;;;;20.33;9.63;;;9.60;85.50;;;;;;5015526;28;20203;-90
2021/10/17 06:05:43;;;;;;;18.90;9.23;;;9.60;85.70;;;;;;5015574;28;20298;-90
2021/10/17 06:08:08;;;;;;;18.87;8.87;;;9.60;85.60;;;;;;5033233;28;20180;-90
2021/10/17 06:10:34;;;;;;;18.37;8.13;;;9.60;85.60;;;;;;5016074;28;20183;-90
2021/10/17 06:13:00;;;;;;;17.37;8.03;;;9.60;85.70;;;;;;5015848;28;20220;-90
2021/10/17 06:15:26;;;;;;;17.27;8.63;;;9.70;85.80;;;;;;5016002;28;20695;-90
2021/10/17 06:17:51;;;;;;;22.47;9.30;;;9.60;86.10;;;;;;5017199;28;20188;-90
2021/10/17 06:20:17;;;;;;;15.37;9.10;;;9.60;86.30;;;;;;5019498;28;20200;-90
2021/10/17 06:22:43;;;;;;;18.77;9.07;;;9.70;86.30;;;;;;5019408;28;20699;-90
2021/10/17 06:25:09;;;;;;;17.17;8.73;;;9.60;86.20;;;;;;5019455;28;20224;-90
2021/10/17 06:27:35;;;;;;;17.10;9.53;;;9.70;86.20;;;;;;5019595;28;20267;-90
2021/10/17 06:30:00;;;;;;;24.80;9.27;;;9.60;86.50;;;;;;5019452;28;20259;-90
2021/10/17 06:32:26;;;;;;;20.77;9.30;;;9.60;86.40;;;;;;5019340;28;20273;-90
2021/10/17 06:34:52;;;;;;;20.67;9.47;;;9.60;86.60;;;;;;5037351;28;20595;-90
2021/10/17 06:37:17;;;;;;;18.13;9.10;;;9.70;86.50;;;;;;5019342;28;20656;-90
2021/10/17 06:39:43;;;;;;;17.37;11.37;;;9.60;86.50;;;;;;5036945;28;20246;-90
2021/10/17 06:42:10;;;;;;;17.30;9.23;;;9.60;86.50;;;;;;5036896;28;20260;-90
2021/10/17 06:44:36;;;;;;;19.03;9.10;;;9.70;86.20;;;;;;5019163;28;20172;-90
2021/10/17 06:47:02;;;;;;;22.30;9.27;;;9.60;86.20;;;;;;5019116;28;20550;-91
2021/10/17 06:49:27;;;;;;;16.37;9.73;;;9.70;86.10;;;;;;5019143;28;20179;-92
2021/10/17 06:51:53;;;;;;;19.80;10.10;;;9.70;86.60;;;;;;5019360;28;20653;-91
2021/10/17 06:54:19;;;;;;;26.20;10.03;;;9.70;86.70;;;;;;5019401;28;20724;-91
2021/10/17 06:56:46;;;;;;;27.00;10.73;;;9.80;86.70;;;;;;5019156;28;20212;-92
2021/10/17 06:59:13;;;;;;;19.47;11.43;;;9.80;86.80;;;;;;5019295;28;20791;-92
2021/10/17 07:01:39;;;;;;;21.10;9.90;;;9.80;86.80;;;;;;5019587;28;20184;-92
2021/10/17 07:04:05;;;;;;;22.60;10.03;;;9.70;87.00;;;;;;5019592;28;20560;-92
2021/10/17 07:06:31;;;;;;;18.63;8.73;;;9.70;87.10;;;;;;5019198;28;20170;-91
2021/10/17 07:08:57;;;;;;;18.50;10.00;;;9.70;87.20;;;;;;5019228;28;20177;-92
2021/10/17 07:11:22;;;;;;;21.33;9.47;;;9.60;87.00;;;;;;5018844;28;20246;-91
2021/10/17 07:13:48;;;;;;;21.90;9.43;;;9.60;87.10;;;;;;5018944;28;20684;-91
2021/10/17 07:16:14;;;;;;;23.27;9.57;;;9.60;87.20;;;;;;5019603;28;20680;-92
2021/10/17 07:18:40;;;;;;;18.73;9.43;;;9.60;87.30;;;;;;5018589;28;20731;-91
2021/10/17 07:21:05;;;;;;;18.13;9.60;;;9.60;87.40;;;;;;5018949;28;20667;-91
2021/10/17 07:23:31;;;;;;;37.10;9.83;;;9.60;87.60;;;;;;5018889;28;20193;-91
2021/10/17 07:25:57;;;;;;;18.10;9.60;;;9.60;87.80;;;;;;5019126;28;20183;-92
2021/10/17 07:28:22;;;;;;;22.40;10.40;;;9.60;87.80;;;;;;5018507;28;20244;-92
2021/10/17 07:30:48;;;;;;;25.13;10.80;;;9.70;87.60;;;;;;5018070;28;20184;-91
2021/10/17 07:33:14;;;;;;;23.87;10.10;;;9.80;87.30;;;;;;5018843;28;20202;-91
2021/10/17 07:35:39;;;;;;;21.47;9.80;;;9.80;87.50;;;;;;5018837;28;20180;-92
2021/10/17 07:38:05;;;;;;;26.53;10.17;;;9.80;87.70;;;;;;5018383;28;20667;-91
2021/10/17 07:40:31;;;;;;;18.57;9.93;;;9.80;87.20;;;;;;5019292;28;20200;-91
2021/10/17 07:42:56;;;;;;;19.90;10.10;;;9.80;87.00;;;;;;5018252;28;20196;-91
2021/10/17 07:45:23;;;;;;;30.00;11.90;;;9.80;87.10;;;;;;5018381;28;20198;-91
2021/10/17 07:47:48;;;;;;;24.33;11.17;;;9.80;87.20;;;;;;5018403;28;20602;-91
2021/10/17 07:50:14;;;;;;;18.63;10.80;;;9.80;87.40;;;;;;5018495;28;20207;-91
2021/10/17 07:52:40;;;;;;;23.30;10.80;;;9.80;87.80;;;;;;5018241;28;20669;-91
2021/10/17 07:55:07;;;;;;;24.80;10.80;;;9.80;87.90;;;;;;5018089;28;20181;-91
2021/10/17 07:57:46;;;;;;;27.40;14.33;;;9.70;88.60;;;;;;5018486;28;20310;-91
2021/10/17 08:00:12;;;;;;;28.40;13.17;;;9.60;89.20;;;;;;5018522;28;20292;-92
2021/10/17 08:02:37;;;;;;;23.20;12.47;;;9.60;89.70;;;;;;5018694;28;20198;-92
2021/10/17 08:05:03;;;;;;;33.67;13.33;;;9.50;90.10;;;;;;5018189;28;20275;-92
2021/10/17 08:07:29;;;;;;;23.60;13.07;;;9.60;90.20;;;;;;5019244;28;20179;-91
2021/10/17 08:09:55;;;;;;;25.60;12.07;;;9.60;90.60;;;;;;5018897;28;20179;-92
2021/10/17 08:12:20;;;;;;;21.43;11.93;;;9.60;90.50;;;;;;5018057;28;20179;-92
2021/10/17 08:14:46;;;;;;;26.23;12.40;;;9.50;90.50;;;;;;5018171;28;20168;-92
2021/10/17 08:17:11;;;;;;;32.20;13.77;;;9.50;90.50;;;;;;5018225;28;20648;-92
2021/10/17 08:19:37;;;;;;;26.47;12.77;;;9.50;90.60;;;;;;5018136;28;20271;-92
2021/10/17 08:22:03;;;;;;;26.63;13.30;;;9.50;90.50;;;;;;5018152;28;20544;-92
2021/10/17 08:24:28;;;;;;;23.43;14.13;;;9.60;90.60;;;;;;5017485;28;20216;-92
2021/10/17 08:26:54;;;;;;;27.87;14.00;;;9.60;90.50;;;;;;5017656;28;20644;-92
2021/10/17 08:29:20;;;;;;;32.00;12.47;;;9.60;90.20;;;;;;5017533;28;20187;-92
2021/10/17 08:31:45;;;;;;;26.80;13.87;;;9.60;89.50;;;;;;5017552;28;20223;-92
2021/10/17 08:34:11;;;;;;;20.60;12.57;;;9.60;89.60;;;;;;5018243;28;20201;-92
2021/10/17 08:36:37;;;;;;;34.00;13.97;;;9.60;89.60;;;;;;5018563;28;20188;-92
2021/10/17 08:39:03;;;;;;;29.87;14.60;;;9.50;90.10;;;;;;5017291;28;20201;-92
2021/10/17 08:41:28;;;;;;;27.47;15.17;;;9.60;90.30;;;;;;5017312;28;20543;-92
2021/10/17 08:43:54;;;;;;;29.70;15.53;;;9.60;90.40;;;;;;5017214;28;20279;-91
2021/10/17 08:46:20;;;;;;;32.53;15.83;;;9.60;90.80;;;;;;5017322;28;20180;-91
2021/10/17 08:48:55;;;;;;;37.90;16.20;;;9.60;90.90;;;;;;5017354;28;20183;-92
2021/10/17 08:51:23;;;;;;;28.00;17.00;;;9.60;90.70;;;;;;5016899;28;20520;-90
2021/10/17 08:53:49;;;;;;;37.53;16.17;;;9.80;90.60;;;;;;5016741;28;20282;-89
2021/10/17 08:56:15;;;;;;;27.80;14.73;;;9.80;90.60;;;;;;5016697;28;20664;-89
2021/10/17 08:58:41;;;;;;;36.13;15.73;;;9.80;90.10;;;;;;5016685;28;20169;-91
2021/10/17 09:01:19;;;;;;;29.90;15.13;;;9.90;89.70;;;;;;5016925;28;20271;-90
2021/10/17 09:03:58;;;;;;;27.63;13.27;;;9.90;89.60;;;;;;5016547;28;20558;-90
2021/10/17 09:06:29;;;;;;;23.17;12.93;;;9.90;88.90;;;;;;5016641;28;20175;-91
2021/10/17 09:09:15;;;;;;;24.43;13.63;;;9.90;88.70;;;;;;5016427;28;20176;-91
2021/10/17 09:11:52;;;;;;;24.17;12.97;;;9.90;88.70;;;;;;5017346;28;20707;-90
2021/10/17 09:14:22;;;;;;;23.97;13.73;;;10.00;88.90;;;;;;5033892;28;20291;-90
2021/10/17 09:16:51;;;;;;;24.93;13.17;;;10.10;88.80;;;;;;5034060;28;20175;-90
2021/10/17 09:19:28;;;;;;;25.47;14.07;;;10.10;88.50;;;;;;5016577;28;20211;-90
2021/10/17 09:22:01;;;;;;;23.33;12.50;;;10.10;87.90;;;;;;5016301;28;20180;-90
2021/10/17 09:24:40;;;;;;;28.30;13.70;;;10.20;88.00;;;;;;5016376;28;20203;-90
2021/10/17 09:27:19;;;;;;;35.17;13.40;;;10.20;88.30;;;;;;5016321;28;20175;-90
2021/10/17 09:29:52;;;;;;;22.73;12.67;;;10.20;88.30;;;;;;5016347;28;20260;-91
2021/10/17 09:32:25;;;;;;;22.63;13.00;;;10.20;88.00;;;;;;5016765;28;20173;-91
2021/10/17 09:35:02;;;;;;;23.60;12.67;;;10.30;87.90;;;;;;5016078;28;20524;-90
2021/10/17 09:37:37;;;;;;;24.10;12.40;;;10.20;87.80;;;;;;5016249;28;20180;-90
2021/10/17 09:40:10;;;;;;;18.67;13.13;;;10.20;87.40;;;;;;5015832;28;20224;-90
2021/10/17 09:42:40;;;;;;;30.73;12.33;;;10.30;87.50;;;;;;5016234;28;20192;-90
2021/10/17 09:45:22;;;;;;;21.87;13.23;;;10.30;87.70;;;;;;5015946;28;20161;-91
2021/10/17 09:47:48;;;;;;;26.83;13.97;;;10.30;87.60;;;;;;5015844;28;20179;-91
2021/10/17 09:50:16;;;;;;;23.63;12.90;;;10.30;87.20;;;;;;5015849;28;20192;-91
2021/10/17 09:53:00;;;;;;;27.80;13.13;;;10.30;87.30;;;;;;5016156;28;20196;-90
2021/10/17 09:55:27;;;;;;;25.83;12.93;;;10.30;87.70;;;;;;5033786;28;20162;-90
2021/10/17 09:57:53;;;;;;;24.60;12.87;;;10.40;87.50;;;;;;5015769;28;20185;-90
2021/10/17 10:00:19;;;;;;;20.30;11.93;;;10.40;87.30;;;;;;5015697;28;20209;-90
2021/10/17 10:02:46;;;;;;;27.37;12.77;;;10.40;87.10;;;;;;5033253;28;20195;-89
2021/10/17 10:05:18;;;;;;;29.50;13.67;;;10.50;86.90;;;;;;5016447;28;20183;-90
2021/10/17 10:07:49;;;;;;;25.03;12.50;;;10.50;87.10;;;;;;5016267;28;20260;-90
2021/10/17 10:10:17;;;;;;;27.97;11.60;;;10.50;86.70;;;;;;5015687;28;20172;-90
2021/10/17 10:12:45;;;;;;;28.55;12.70;;;10.50;86.80;;;;;;5075206;22;20223;-86
2021/10/17 10:15:11;;;;;;;26.03;12.60;;;10.60;86.70;;;;;;5037127;28;20195;-87
2021/10/17 10:17:38;;;;;;;24.67;12.13;;;10.60;86.90;;;;;;5038485;28;20172;-87
2021/10/17 10:20:04;;;;;;;19.80;12.00;;;10.60;87.00;;;;;;5036936;28;20200;-86
2021/10/17 10:22:32;;;;;;;28.43;12.00;;;10.70;87.00;;;;;;5055509;28;20172;-87
2021/10/17 10:24:59;;;;;;;26.90;11.57;;;10.70;86.90;;;;;;5036764;28;20200;-86
2021/10/17 10:27:26;;;;;;;22.67;12.20;;;10.70;86.90;;;;;;5037168;28;20168;-86
2021/10/17 10:30:11;;;;;;;22.77;11.37;;;10.70;86.80;;;;;;5056519;28;20180;-86
2021/10/17 10:32:37;;;;;;;27.20;12.77;;;10.80;86.80;;;;;;5036542;28;20176;-85
2021/10/17 10:35:07;;;;;;;32.87;12.10;;;10.80;86.80;;;;;;5054999;28;20230;-86
2021/10/17 10:37:46;;;;;;;18.60;11.63;;;10.80;86.50;;;;;;5055065;28;20164;-86
2021/10/17 10:40:15;;;;;;;23.73;11.67;;;10.80;86.50;;;;;;5037639;28;20195;-87
2021/10/17 10:42:46;;;;;;;18.00;11.10;;;10.90;86.60;;;;;;5038434;28;20199;-86
2021/10/17 10:45:37;;;;;;;29.47;12.03;;;10.90;86.00;;;;;;5037411;28;20214;-85
2021/10/17 10:48:12;;;;;;;25.60;11.20;;;10.90;85.30;;;;;;5037824;28;20226;-86
2021/10/17 10:50:50;;;;;;;23.20;11.33;;;11.00;85.70;;;;;;5036807;28;20180;-86
2021/10/17 10:53:45;;;;;;;29.10;10.93;;;11.00;85.50;;;;;;5055474;28;20188;-86
2021/10/17 10:56:30;;;;;;;27.80;11.57;;;11.00;85.10;;;;;;5037539;28;20172;-87
2021/10/17 10:58:56;;;;;;;24.20;11.57;;;11.00;85.10;;;;;;5054949;28;20180;-86
2021/10/17 11:02:02;;;;;;;21.57;11.03;;;11.10;85.30;;;;;;5056404;28;20172;-87
2021/10/17 11:04:44;;;;;;;29.73;10.73;;;11.10;85.30;;;;;;5037688;28;20668;-87
2021/10/17 11:07:28;;;;;;;25.87;10.90;;;11.10;85.40;;;;;;5058977;28;20183;-88
2021/10/17 11:09:56;;;;;;;21.80;10.87;;;11.10;85.40;;;;;;5058691;28;20155;-85
2021/10/17 11:12:41;;;;;;;19.27;11.27;;;11.10;85.40;;;;;;5059328;28;20168;-87
2021/10/17 11:15:12;;;;;;;19.93;10.90;;;11.10;85.50;;;;;;5040698;28;20192;-88
2021/10/17 11:17:38;;;;;;;21.27;12.83;;;11.10;85.80;;;;;;5058713;28;20168;-87
2021/10/17 11:20:05;;;;;;;18.37;10.50;;;11.10;85.20;;;;;;5040534;28;20222;-88
2021/10/17 11:22:35;;;;;;;23.43;10.57;;;11.10;85.20;;;;;;5041350;28;20172;-87
2021/10/17 11:25:02;;;;;;;24.63;11.03;;;11.10;84.90;;;;;;5040473;28;20176;-87
2021/10/17 11:27:27;;;;;;;26.83;12.00;;;11.10;85.10;;;;;;5058288;28;20656;-88
2021/10/17 11:29:53;;;;;;;20.83;10.63;;;11.10;85.20;;;;;;5059027;28;20168;-87
2021/10/17 11:32:19;;;;;;;23.40;10.63;;;11.10;84.90;;;;;;5040791;28;20199;-87
2021/10/17 11:35:03;;;;;;;23.77;11.73;;;11.10;85.10;;;;;;5041664;28;20207;-87
2021/10/17 11:37:31;;;;;;;25.20;10.97;;;11.20;85.00;;;;;;5040486;28;20701;-87
2021/10/17 11:40:00;;;;;;;27.27;10.53;;;11.20;85.20;;;;;;5058919;28;20195;-86
2021/10/17 11:42:28;;;;;;;25.17;11.07;;;11.20;84.60;;;;;;5040741;28;20168;-86
2021/10/17 11:44:57;;;;;;;23.03;10.40;;;11.30;85.10;;;;;;5040280;28;20203;-86
2021/10/17 11:47:23;;;;;;;20.10;11.00;;;11.20;85.40;;;;;;5056239;28;20172;-86
2021/10/17 11:49:49;;;;;;;28.30;11.70;;;11.20;85.40;;;;;;5038073;28;20226;-87
2021/10/17 11:52:16;;;;;;;26.30;11.00;;;11.20;85.10;;;;;;5056452;28;20644;-86
2021/10/17 11:54:43;;;;;;;28.10;11.47;;;11.20;85.80;;;;;;5039118;28;20202;-88
2021/10/17 11:57:09;;;;;;;25.27;12.20;;;11.20;85.80;;;;;;5038597;28;20310;-87
2021/10/17 11:59:35;;;;;;;28.33;12.20;;;11.20;86.20;;;;;;5055350;28;20246;-87
2021/10/17 12:02:00;;;;;;;29.30;12.37;;;11.20;86.60;;;;;;5055418;28;20176;-87
2021/10/17 12:04:42;;;;;;;28.13;13.07;;;11.10;86.40;;;;;;5037317;28;20215;-86
2021/10/17 12:07:08;;;;;;;28.27;11.47;;;11.10;86.10;;;;;;5037443;28;20179;-86
2021/10/17 12:09:36;;;;;;;23.57;11.40;;;11.20;86.40;;;;;;5037358;28;20176;-87
2021/10/17 12:12:02;;;;;;;21.10;11.70;;;11.20;86.10;;;;;;5037448;28;20180;-87
2021/10/17 12:14:27;;;;;;;28.00;12.00;;;11.20;86.40;;;;;;5054900;28;20204;-87
2021/10/17 12:16:57;;;;;;;25.27;12.33;;;11.30;86.80;;;;;;5036765;28;20180;-87
2021/10/17 12:19:26;;;;;;;19.43;11.40;;;11.30;86.30;;;;;;5037239;28;20223;-86
2021/10/17 12:21:52;;;;;;;28.50;12.23;;;11.30;86.10;;;;;;5037294;28;20215;-86
2021/10/17 12:24:21;;;;;;;29.47;12.33;;;11.30;86.30;;;;;;5037052;28;20196;-86
2021/10/17 12:26:56;;;;;;;25.30;12.30;;;11.30;86.00;;;;;;5037178;28;20171;-87
2021/10/17 12:29:25;;;;;;;23.00;11.17;;;11.40;86.40;;;;;;5054970;28;20223;-86
2021/10/17 12:31:59;;;;;;;23.97;11.73;;;11.40;86.40;;;;;;5037067;28;20176;-86
2021/10/17 12:34:39;;;;;;;32.27;13.00;;;11.30;85.60;;;;;;5054768;28;20214;-86
2021/10/17 12:37:06;;;;;;;21.13;11.33;;;11.40;86.20;;;;;;5036830;28;20171;-86
2021/10/17 12:39:31;;;;;;;23.33;11.13;;;11.40;85.90;;;;;;5036663;28;20208;-86
2021/10/17 12:41:58;;;;;;;19.97;11.43;;;11.40;85.90;;;;;;5037144;28;20176;-86